createdAt,value
2022-12-08T00:00:38.000Z,10439.0
2022-12-08T00:01:37.000Z,10458.0
2022-12-08T00:02:37.000Z,9882.0
2022-12-08T00:03:38.000Z,9458.0
2022-12-08T00:04:37.000Z,9376.0
2022-12-08T00:05:37.000Z,9242.0
2022-12-08T00:06:37.000Z,9318.0
2022-12-08T00:07:37.000Z,9362.0
2022-12-08T00:08:38.000Z,8962.0
2022-12-08T00:09:37.000Z,8155.0
2022-12-08T00:10:37.000Z,8040.0
2022-12-08T00:11:37.000Z,7973.0
2022-12-08T00:12:37.000Z,7872.0
2022-12-08T00:13:38.000Z,7951.0
2022-12-08T00:14:37.000Z,8235.0
2022-12-08T00:15:37.000Z,8851.0
2022-12-08T00:16:38.000Z,8817.0
2022-12-08T00:17:37.000Z,8952.0
2022-12-08T00:18:37.000Z,9030.0
2022-12-08T00:19:37.000Z,8807.0
2022-12-08T00:20:37.000Z,8257.0
2022-12-08T00:21:38.000Z,8295.0
2022-12-08T00:22:37.000Z,8836.0
2022-12-08T00:23:37.000Z,9217.0
2022-12-08T00:24:37.000Z,9039.0
2022-12-08T00:25:37.000Z,9815.0
2022-12-08T00:26:38.000Z,9787.0
2022-12-08T00:27:37.000Z,9639.0
2022-12-08T00:28:37.000Z,9325.0
2022-12-08T00:29:38.000Z,9393.0
2022-12-08T00:30:37.000Z,9707.0
2022-12-08T00:31:37.000Z,9717.0
2022-12-08T00:32:37.000Z,9328.0
2022-12-08T00:33:37.000Z,9097.0
2022-12-08T00:34:38.000Z,8767.0
2022-12-08T00:35:37.000Z,8778.0
2022-12-08T00:36:37.000Z,8635.0
2022-12-08T00:37:37.000Z,8670.0
2022-12-08T00:38:37.000Z,9095.0
2022-12-08T00:39:37.000Z,9649.0
2022-12-08T00:40:37.000Z,9379.0
2022-12-08T00:41:37.000Z,9667.0
2022-12-08T00:42:38.000Z,8991.0
2022-12-08T00:43:37.000Z,8407.0
2022-12-08T00:44:37.000Z,8267.0
2022-12-08T00:45:37.000Z,8272.0
2022-12-08T00:46:37.000Z,8492.0
2022-12-08T00:47:37.000Z,9337.0
2022-12-08T00:48:37.000Z,8299.0
2022-12-08T00:49:37.000Z,8102.0
2022-12-08T00:50:38.000Z,7158.0
2022-12-08T00:51:37.000Z,6159.0
2022-12-08T00:52:37.000Z,6165.0
2022-12-08T00:53:38.000Z,6386.0
2022-12-08T00:54:37.000Z,6500.0
2022-12-08T00:55:37.000Z,6571.0
2022-12-08T00:56:37.000Z,6480.0
2022-12-08T00:57:37.000Z,6650.0
2022-12-08T00:58:38.000Z,6943.0
2022-12-08T00:59:37.000Z,7196.0
2022-12-08T01:00:37.000Z,7647.0
2022-12-08T01:01:38.000Z,7325.0
2022-12-08T01:02:37.000Z,7351.0
2022-12-08T01:03:37.000Z,7465.0
2022-12-08T01:04:37.000Z,7241.0
2022-12-08T01:05:37.000Z,6906.0
2022-12-08T01:06:38.000Z,6861.0
2022-12-08T01:07:37.000Z,7227.0
2022-12-08T01:08:37.000Z,7929.0
2022-12-08T01:09:37.000Z,8861.0
2022-12-08T01:10:37.000Z,9092.0
2022-12-08T01:11:38.000Z,9076.0
2022-12-08T01:12:37.000Z,8553.0
2022-12-08T01:13:37.000Z,8433.0
2022-12-08T01:14:38.000Z,8419.0
2022-12-08T01:15:37.000Z,8462.0
2022-12-08T01:16:37.000Z,8233.0
2022-12-08T01:17:37.000Z,8095.0
2022-12-08T01:18:37.000Z,8412.0
2022-12-08T01:19:38.000Z,9253.0
2022-12-08T01:20:37.000Z,9973.0
2022-12-08T01:21:37.000Z,10568.0
2022-12-08T01:22:37.000Z,10230.0
2022-12-08T01:23:37.000Z,10850.0
2022-12-08T01:24:38.000Z,11832.0
2022-12-08T01:25:37.000Z,11813.0
2022-12-08T01:26:37.000Z,12624.0
2022-12-08T01:27:38.000Z,12908.0
2022-12-08T01:28:37.000Z,13021.0
2022-12-08T01:29:37.000Z,13332.0
2022-12-08T01:30:37.000Z,14119.0
2022-12-08T01:31:37.000Z,15161.0
2022-12-08T01:32:38.000Z,15507.0
2022-12-08T01:33:37.000Z,16000.0
2022-12-08T01:34:37.000Z,16000.0
2022-12-08T01:35:37.000Z,16000.0
2022-12-08T01:36:37.000Z,16000.0
2022-12-08T01:37:38.000Z,16000.0
2022-12-08T01:38:37.000Z,16000.0
2022-12-08T01:39:37.000Z,16000.0
2022-12-08T01:40:38.000Z,16000.0
2022-12-08T01:41:37.000Z,16000.0
2022-12-08T01:42:37.000Z,16000.0
2022-12-08T01:43:37.000Z,15607.0
2022-12-08T01:44:37.000Z,15224.0
2022-12-08T01:45:38.000Z,15883.0
2022-12-08T01:46:37.000Z,14731.0
2022-12-08T01:47:37.000Z,13056.0
2022-12-08T01:48:38.000Z,13237.0
2022-12-08T01:49:37.000Z,12657.0
2022-12-08T01:50:37.000Z,12589.0
2022-12-08T01:51:38.000Z,11482.0
2022-12-08T01:52:37.000Z,11951.0
2022-12-08T01:53:37.000Z,12723.0
2022-12-08T01:54:37.000Z,13176.0
2022-12-08T01:55:37.000Z,12871.0
2022-12-08T01:56:38.000Z,11161.0
2022-12-08T01:57:37.000Z,10969.0
2022-12-08T01:58:37.000Z,10721.0
2022-12-08T01:59:38.000Z,9766.0
2022-12-08T02:00:37.000Z,9398.0
2022-12-08T02:01:37.000Z,8628.0
2022-12-08T02:02:37.000Z,8927.0
2022-12-08T02:03:37.000Z,9471.0
2022-12-08T02:04:38.000Z,9529.0
2022-12-08T02:05:37.000Z,8948.0
2022-12-08T02:06:37.000Z,8773.0
2022-12-08T02:07:37.000Z,9186.0
2022-12-08T02:08:37.000Z,8723.0
2022-12-08T02:09:38.000Z,8492.0
2022-12-08T02:10:37.000Z,8052.0
2022-12-08T02:11:37.000Z,7673.0
2022-12-08T02:12:38.000Z,7165.0
2022-12-08T02:13:37.000Z,6946.0
2022-12-08T02:14:37.000Z,6752.0
2022-12-08T02:15:37.000Z,7567.0
2022-12-08T02:16:37.000Z,7734.0
2022-12-08T02:17:38.000Z,7812.0
2022-12-08T02:18:37.000Z,7647.0
2022-12-08T02:19:37.000Z,7179.0
2022-12-08T02:20:37.000Z,6707.0
2022-12-08T02:21:37.000Z,6450.0
2022-12-08T02:22:38.000Z,6245.0
2022-12-08T02:23:37.000Z,6216.0
2022-12-08T02:24:37.000Z,6382.0
2022-12-08T02:25:38.000Z,6331.0
2022-12-08T02:26:37.000Z,6363.0
2022-12-08T02:27:37.000Z,6286.0
2022-12-08T02:28:37.000Z,6127.0
2022-12-08T02:29:37.000Z,5666.0
2022-12-08T02:30:38.000Z,5763.0
2022-12-08T02:31:37.000Z,5787.0
2022-12-08T02:32:37.000Z,5665.0
2022-12-08T02:33:37.000Z,5329.0
2022-12-08T02:34:37.000Z,5167.0
2022-12-08T02:35:37.000Z,5274.0
2022-12-08T02:36:37.000Z,5272.0
2022-12-08T02:37:37.000Z,5321.0
2022-12-08T02:38:38.000Z,5401.0
2022-12-08T02:39:37.000Z,5286.0
2022-12-08T02:40:37.000Z,5193.0
2022-12-08T02:41:37.000Z,5284.0
2022-12-08T02:42:37.000Z,5340.0
2022-12-08T02:43:38.000Z,5150.0
2022-12-08T02:44:37.000Z,4974.0
2022-12-08T02:45:37.000Z,5073.0
2022-12-08T02:46:38.000Z,5043.0
2022-12-08T02:47:37.000Z,5034.0
2022-12-08T02:48:37.000Z,5052.0
2022-12-08T02:49:36.000Z,4971.0
2022-12-08T02:50:37.000Z,5136.0
2022-12-08T02:51:37.000Z,5248.0
2022-12-08T02:52:37.000Z,5145.0
2022-12-08T02:53:37.000Z,5103.0
2022-12-08T02:54:38.000Z,5125.0
2022-12-08T02:55:37.000Z,5338.0
2022-12-08T02:56:37.000Z,5418.0
2022-12-08T02:57:36.000Z,5480.0
2022-12-08T02:58:37.000Z,5349.0
2022-12-08T02:59:38.000Z,5365.0
2022-12-08T03:00:37.000Z,5157.0
2022-12-08T03:01:37.000Z,5210.0
2022-12-08T03:02:38.000Z,5057.0
2022-12-08T03:03:37.000Z,5039.0
2022-12-08T03:04:37.000Z,5208.0
2022-12-08T03:05:37.000Z,5455.0
2022-12-08T03:06:37.000Z,6044.0
2022-12-08T03:07:38.000Z,6220.0
2022-12-08T03:08:37.000Z,6131.0
2022-12-08T03:09:37.000Z,6623.0
2022-12-08T03:10:37.000Z,6836.0
2022-12-08T03:11:37.000Z,6636.0
2022-12-08T03:12:37.000Z,6412.0
2022-12-08T03:13:37.000Z,6407.0
2022-12-08T03:14:37.000Z,6286.0
2022-12-08T03:15:38.000Z,6064.0
2022-12-08T03:16:37.000Z,6084.0
2022-12-08T03:17:37.000Z,6418.0
2022-12-08T03:18:37.000Z,6688.0
2022-12-08T03:19:37.000Z,7460.0
2022-12-08T03:20:38.000Z,7679.0
2022-12-08T03:21:37.000Z,8084.0
2022-12-08T03:22:37.000Z,8008.0
2022-12-08T03:23:38.000Z,7951.0
2022-12-08T03:24:37.000Z,7648.0
2022-12-08T03:25:37.000Z,7119.0
2022-12-08T03:26:37.000Z,6548.0
2022-12-08T03:27:37.000Z,5896.0
2022-12-08T03:28:38.000Z,5565.0
2022-12-08T03:29:37.000Z,5429.0
2022-12-08T03:30:37.000Z,5689.0
2022-12-08T03:31:37.000Z,5319.0
2022-12-08T03:32:37.000Z,4998.0
2022-12-08T03:33:38.000Z,4923.0
2022-12-08T03:34:37.000Z,4844.0
2022-12-08T03:35:37.000Z,4822.0
2022-12-08T03:36:36.000Z,4792.0
2022-12-08T03:37:37.000Z,4616.0
2022-12-08T03:38:37.000Z,4520.0
2022-12-08T03:39:37.000Z,4524.0
2022-12-08T03:40:37.000Z,4711.0
2022-12-08T03:41:38.000Z,4951.0
2022-12-08T03:42:37.000Z,5063.0
2022-12-08T03:43:37.000Z,5114.0
2022-12-08T03:44:37.000Z,5312.0
2022-12-08T03:45:37.000Z,5340.0
2022-12-08T03:46:37.000Z,5079.0
2022-12-08T03:47:37.000Z,5021.0
2022-12-08T03:48:37.000Z,5209.0
2022-12-08T03:49:38.000Z,5059.0
2022-12-08T03:50:37.000Z,5195.0
2022-12-08T03:51:37.000Z,5327.0
2022-12-08T03:52:38.000Z,5560.0
2022-12-08T03:53:37.000Z,5855.0
2022-12-08T03:54:37.000Z,5979.0
2022-12-08T03:55:37.000Z,5695.0
2022-12-08T03:56:37.000Z,5912.0
2022-12-08T03:57:38.000Z,6395.0
2022-12-08T03:58:37.000Z,6369.0
2022-12-08T03:59:37.000Z,5969.0
2022-12-08T04:00:38.000Z,5655.0
2022-12-08T04:01:37.000Z,5268.0
2022-12-08T04:02:37.000Z,5576.0
2022-12-08T04:03:37.000Z,5635.0
2022-12-08T04:04:37.000Z,5741.0
2022-12-08T04:05:38.000Z,5707.0
2022-12-08T04:06:37.000Z,6095.0
2022-12-08T04:07:37.000Z,5679.0
2022-12-08T04:08:37.000Z,5322.0
2022-12-08T04:09:37.000Z,5591.0
2022-12-08T04:10:38.000Z,5866.0
2022-12-08T04:11:37.000Z,6009.0
2022-12-08T04:12:37.000Z,5794.0
2022-12-08T04:13:38.000Z,5978.0
2022-12-08T04:14:37.000Z,6195.0
2022-12-08T04:15:37.000Z,6242.0
2022-12-08T04:16:37.000Z,6525.0
2022-12-08T04:17:37.000Z,6406.0
2022-12-08T04:18:38.000Z,6492.0
2022-12-08T04:19:37.000Z,6749.0
2022-12-08T04:20:37.000Z,7269.0
2022-12-08T04:21:37.000Z,6962.0
2022-12-08T04:22:37.000Z,7234.0
2022-12-08T04:23:38.000Z,7356.0
2022-12-08T04:24:37.000Z,7370.0
2022-12-08T04:25:37.000Z,6824.0
2022-12-08T04:26:38.000Z,6561.0
2022-12-08T04:27:37.000Z,6630.0
2022-12-08T04:28:37.000Z,6343.0
2022-12-08T04:29:37.000Z,5299.0
2022-12-08T04:30:37.000Z,5302.0
2022-12-08T04:31:38.000Z,4999.0
2022-12-08T04:32:37.000Z,5186.0
2022-12-08T04:33:37.000Z,5179.0
2022-12-08T04:34:37.000Z,5674.0
2022-12-08T04:35:37.000Z,5807.0
2022-12-08T04:36:37.000Z,5613.0
2022-12-08T04:37:37.000Z,5261.0
2022-12-08T04:38:37.000Z,5110.0
2022-12-08T04:39:38.000Z,4683.0
2022-12-08T04:40:37.000Z,4615.0
2022-12-08T04:41:37.000Z,4273.0
2022-12-08T04:42:37.000Z,4312.0
2022-12-08T04:43:37.000Z,4592.0
2022-12-08T04:44:38.000Z,4984.0
2022-12-08T04:45:37.000Z,4767.0
2022-12-08T04:46:37.000Z,4770.0
2022-12-08T04:47:38.000Z,4753.0
2022-12-08T04:48:37.000Z,4087.0
2022-12-08T04:49:37.000Z,4252.0
2022-12-08T04:50:36.000Z,4209.0
2022-12-08T04:51:37.000Z,4473.0
2022-12-08T04:52:37.000Z,4319.0
2022-12-08T04:53:37.000Z,4578.0
2022-12-08T04:54:37.000Z,4525.0
2022-12-08T04:55:38.000Z,4175.0
2022-12-08T04:56:37.000Z,4292.0
2022-12-08T04:57:37.000Z,4259.0
2022-12-08T04:58:36.000Z,3911.0
2022-12-08T04:59:37.000Z,4035.0
2022-12-08T05:00:38.000Z,3088.0
2022-12-08T05:01:37.000Z,3311.0
2022-12-08T05:02:37.000Z,3338.0
2022-12-08T05:03:38.000Z,3494.0
2022-12-08T05:04:37.000Z,3001.0
2022-12-08T05:05:37.000Z,2764.0
2022-12-08T05:06:37.000Z,3211.0
2022-12-08T05:07:37.000Z,3062.0
2022-12-08T05:08:38.000Z,3086.0
2022-12-08T05:09:37.000Z,2979.0
2022-12-08T05:10:37.000Z,2943.0
2022-12-08T05:11:37.000Z,3075.0
2022-12-08T05:12:37.000Z,2703.0
2022-12-08T05:13:37.000Z,2508.0
2022-12-08T05:14:37.000Z,2385.0
2022-12-08T05:15:37.000Z,2463.0
2022-12-08T05:16:38.000Z,2598.0
2022-12-08T05:17:37.000Z,2730.0
2022-12-08T05:18:37.000Z,3028.0
2022-12-08T05:19:37.000Z,3590.0
2022-12-08T05:20:37.000Z,3421.0
2022-12-08T05:21:38.000Z,3297.0
2022-12-08T05:22:37.000Z,3147.0
2022-12-08T05:23:37.000Z,3085.0
2022-12-08T05:24:38.000Z,2593.0
2022-12-08T05:25:37.000Z,2770.0
2022-12-08T05:26:37.000Z,2887.0
2022-12-08T05:27:37.000Z,2984.0
2022-12-08T05:28:37.000Z,3149.0
2022-12-08T05:29:38.000Z,3201.0
2022-12-08T05:30:37.000Z,3012.0
2022-12-08T05:31:37.000Z,2801.0
2022-12-08T05:32:37.000Z,2863.0
2022-12-08T05:33:37.000Z,2956.0
2022-12-08T05:34:38.000Z,3324.0
2022-12-08T05:35:37.000Z,4004.0
2022-12-08T05:36:37.000Z,4015.0
2022-12-08T05:37:36.000Z,4215.0
2022-12-08T05:38:37.000Z,4397.0
2022-12-08T05:39:37.000Z,3853.0
2022-12-08T05:40:37.000Z,3502.0
2022-12-08T05:41:37.000Z,3503.0
2022-12-08T05:42:38.000Z,3049.0
2022-12-08T05:43:37.000Z,3119.0
2022-12-08T05:44:37.000Z,2863.0
2022-12-08T05:45:37.000Z,3615.0
2022-12-08T05:46:37.000Z,3667.0
2022-12-08T05:47:37.000Z,3797.0
2022-12-08T05:48:37.000Z,3701.0
2022-12-08T05:49:37.000Z,3477.0
2022-12-08T05:50:38.000Z,3613.0
2022-12-08T05:51:37.000Z,3676.0
2022-12-08T05:52:37.000Z,3425.0
2022-12-08T05:53:38.000Z,3994.0
2022-12-08T05:54:37.000Z,4108.0
2022-12-08T05:55:37.000Z,4388.0
2022-12-08T05:56:37.000Z,4925.0
2022-12-08T05:57:37.000Z,4756.0
2022-12-08T05:58:37.000Z,5138.0
2022-12-08T05:59:37.000Z,5178.0
2022-12-08T06:00:37.000Z,4515.0
2022-12-08T06:01:38.000Z,4901.0
2022-12-08T06:02:37.000Z,4643.0
2022-12-08T06:03:37.000Z,3991.0
2022-12-08T06:04:37.000Z,4435.0
2022-12-08T06:05:37.000Z,4009.0
2022-12-08T06:06:38.000Z,3557.0
2022-12-08T06:07:37.000Z,3926.0
2022-12-08T06:08:37.000Z,3673.0
2022-12-08T06:09:36.000Z,3822.0
2022-12-08T06:10:37.000Z,4203.0
2022-12-08T06:11:38.000Z,4937.0
2022-12-08T06:12:37.000Z,4178.0
2022-12-08T06:13:37.000Z,4547.0
2022-12-08T06:14:38.000Z,3892.0
2022-12-08T06:15:37.000Z,3950.0
2022-12-08T06:16:37.000Z,4196.0
2022-12-08T06:17:37.000Z,4899.0
2022-12-08T06:18:37.000Z,4920.0
2022-12-08T06:19:38.000Z,4240.0
2022-12-08T06:20:37.000Z,4504.0
2022-12-08T06:21:37.000Z,4557.0
2022-12-08T06:22:37.000Z,4790.0
2022-12-08T06:23:37.000Z,4536.0
2022-12-08T06:24:37.000Z,4591.0
2022-12-08T06:25:37.000Z,4354.0
2022-12-08T06:26:37.000Z,4329.0
2022-12-08T06:27:38.000Z,4585.0
2022-12-08T06:28:37.000Z,4812.0
2022-12-08T06:29:37.000Z,4375.0
2022-12-08T06:30:37.000Z,4257.0
2022-12-08T06:31:37.000Z,3932.0
2022-12-08T06:32:38.000Z,4206.0
2022-12-08T06:33:37.000Z,4357.0
2022-12-08T06:34:37.000Z,4307.0
2022-12-08T06:35:38.000Z,4716.0
2022-12-08T06:36:37.000Z,4681.0
2022-12-08T06:37:37.000Z,5003.0
2022-12-08T06:38:37.000Z,4870.0
2022-12-08T06:39:37.000Z,5383.0
2022-12-08T06:40:38.000Z,5200.0
2022-12-08T06:41:37.000Z,5162.0
2022-12-08T06:42:37.000Z,4634.0
2022-12-08T06:43:37.000Z,4083.0
2022-12-08T06:44:37.000Z,3703.0
2022-12-08T06:45:37.000Z,4219.0
2022-12-08T06:46:37.000Z,4177.0
2022-12-08T06:47:37.000Z,4498.0
2022-12-08T06:48:38.000Z,4965.0
2022-12-08T06:49:37.000Z,5240.0
2022-12-08T06:50:37.000Z,5040.0
2022-12-08T06:51:38.000Z,4803.0
2022-12-08T06:52:37.000Z,3731.0
2022-12-08T06:53:37.000Z,3403.0
2022-12-08T06:54:37.000Z,3127.0
2022-12-08T06:55:37.000Z,3079.0
2022-12-08T06:56:38.000Z,3005.0
2022-12-08T06:57:37.000Z,3237.0
2022-12-08T06:58:37.000Z,3875.0
2022-12-08T06:59:38.000Z,4302.0
2022-12-08T07:00:37.000Z,4279.0
2022-12-08T07:01:37.000Z,4378.0
2022-12-08T07:02:37.000Z,4824.0
2022-12-08T07:03:37.000Z,4828.0
2022-12-08T07:04:38.000Z,4438.0
2022-12-08T07:05:37.000Z,4252.0
2022-12-08T07:06:37.000Z,4549.0
2022-12-08T07:07:37.000Z,4885.0
2022-12-08T07:08:37.000Z,5183.0
2022-12-08T07:09:37.000Z,5251.0
2022-12-08T07:10:37.000Z,5035.0
2022-12-08T07:11:37.000Z,4925.0
2022-12-08T07:12:38.000Z,4767.0
2022-12-08T07:13:37.000Z,4693.0
2022-12-08T07:14:37.000Z,4974.0
2022-12-08T07:15:37.000Z,4198.0
2022-12-08T07:16:37.000Z,4871.0
2022-12-08T07:17:38.000Z,4829.0
2022-12-08T07:18:37.000Z,4376.0
2022-12-08T07:19:37.000Z,3811.0
2022-12-08T07:20:38.000Z,3483.0
2022-12-08T07:21:37.000Z,3856.0
2022-12-08T07:22:38.000Z,4232.0
2022-12-08T07:23:37.000Z,4314.0
2022-12-08T07:24:37.000Z,4668.0
2022-12-08T07:25:38.000Z,5099.0
2022-12-08T07:26:37.000Z,5405.0
2022-12-08T07:27:37.000Z,5721.0
2022-12-08T07:28:37.000Z,5385.0
2022-12-08T07:29:37.000Z,6381.0
2022-12-08T07:30:38.000Z,7115.0
2022-12-08T07:31:37.000Z,7826.0
2022-12-08T07:32:37.000Z,7337.0
2022-12-08T07:33:37.000Z,7430.0
2022-12-08T07:34:37.000Z,6794.0
2022-12-08T07:35:37.000Z,6316.0
2022-12-08T07:36:37.000Z,6691.0
2022-12-08T07:37:37.000Z,6584.0
2022-12-08T07:38:38.000Z,6809.0
2022-12-08T07:39:37.000Z,7059.0
2022-12-08T07:40:37.000Z,7525.0
2022-12-08T07:41:37.000Z,7971.0
2022-12-08T07:42:37.000Z,7971.0
2022-12-08T07:43:38.000Z,8750.0
2022-12-08T07:44:37.000Z,10339.0
2022-12-08T07:45:37.000Z,8949.0
2022-12-08T07:46:38.000Z,8753.0
2022-12-08T07:47:37.000Z,9167.0
2022-12-08T07:48:37.000Z,9375.0
2022-12-08T07:49:38.000Z,7739.0
2022-12-08T07:50:37.000Z,6660.0
2022-12-08T07:51:37.000Z,6345.0
2022-12-08T07:52:37.000Z,6186.0
2022-12-08T07:53:37.000Z,6444.0
2022-12-08T07:54:38.000Z,6409.0
2022-12-08T07:55:37.000Z,6249.0
2022-12-08T07:56:37.000Z,5481.0
2022-12-08T07:57:38.000Z,5094.0
2022-12-08T07:58:37.000Z,4996.0
2022-12-08T07:59:37.000Z,4997.0
2022-12-08T08:00:37.000Z,5220.0
2022-12-08T08:01:37.000Z,5672.0
2022-12-08T08:02:38.000Z,5589.0
2022-12-08T08:03:37.000Z,5996.0
2022-12-08T08:04:37.000Z,6440.0
2022-12-08T08:05:37.000Z,7182.0
2022-12-08T08:06:37.000Z,7988.0
2022-12-08T08:07:38.000Z,8166.0
2022-12-08T08:08:37.000Z,9061.0
2022-12-08T08:09:37.000Z,9671.0
2022-12-08T08:10:38.000Z,9319.0
2022-12-08T08:11:37.000Z,9343.0
2022-12-08T08:12:37.000Z,8690.0
2022-12-08T08:13:37.000Z,7975.0
2022-12-08T08:14:37.000Z,8439.0
2022-12-08T08:15:38.000Z,7518.0
2022-12-08T08:16:37.000Z,7026.0
2022-12-08T08:17:37.000Z,6743.0
2022-12-08T08:18:37.000Z,5723.0
2022-12-08T08:19:37.000Z,5676.0
2022-12-08T08:20:38.000Z,5824.0
2022-12-08T08:21:37.000Z,6500.0
2022-12-08T08:22:37.000Z,7984.0
2022-12-08T08:23:38.000Z,8550.0
2022-12-08T08:24:37.000Z,9609.0
2022-12-08T08:25:37.000Z,10762.0
2022-12-08T08:26:37.000Z,11315.0
2022-12-08T08:27:37.000Z,12437.0
2022-12-08T08:28:38.000Z,14366.0
2022-12-08T08:29:37.000Z,13576.0
2022-12-08T08:30:37.000Z,15607.0
2022-12-08T08:31:37.000Z,15500.0
2022-12-08T08:32:37.000Z,15741.0
2022-12-08T08:33:38.000Z,16000.0
2022-12-08T08:34:37.000Z,16000.0
2022-12-08T08:35:37.000Z,16000.0
2022-12-08T08:36:38.000Z,16000.0
2022-12-08T08:37:37.000Z,15373.0
2022-12-08T08:38:37.000Z,12802.0
2022-12-08T08:39:37.000Z,13164.0
2022-12-08T08:40:37.000Z,14089.0
2022-12-08T08:41:38.000Z,13816.0
2022-12-08T08:42:37.000Z,12681.0
2022-12-08T08:43:37.000Z,12096.0
2022-12-08T08:44:37.000Z,11865.0
2022-12-08T08:45:37.000Z,11762.0
2022-12-08T08:46:37.000Z,11818.0
2022-12-08T08:47:37.000Z,12141.0
2022-12-08T08:48:37.000Z,11566.0
2022-12-08T08:49:38.000Z,11417.0
2022-12-08T08:50:37.000Z,9968.0
2022-12-08T08:51:37.000Z,10374.0
2022-12-08T08:52:37.000Z,10668.0
2022-12-08T08:53:37.000Z,10405.0
2022-12-08T08:54:38.000Z,9854.0
2022-12-08T08:55:37.000Z,9025.0
2022-12-08T08:56:37.000Z,10406.0
2022-12-08T08:57:38.000Z,9453.0
2022-12-08T08:58:37.000Z,9203.0
2022-12-08T08:59:37.000Z,8656.0
2022-12-08T09:00:37.000Z,8059.0
2022-12-08T09:01:37.000Z,7459.0
2022-12-08T09:02:38.000Z,7853.0
2022-12-08T09:03:37.000Z,8273.0
2022-12-08T09:04:37.000Z,8580.0
2022-12-08T09:05:37.000Z,8940.0
2022-12-08T09:06:37.000Z,7960.0
2022-12-08T09:07:38.000Z,8091.0
2022-12-08T09:08:37.000Z,9080.0
2022-12-08T09:09:37.000Z,9637.0
2022-12-08T09:10:38.000Z,8542.0
2022-12-08T09:11:37.000Z,9141.0
2022-12-08T09:12:37.000Z,9217.0
2022-12-08T09:13:37.000Z,8801.0
2022-12-08T09:14:37.000Z,8889.0
2022-12-08T09:15:38.000Z,8615.0
2022-12-08T09:16:37.000Z,8839.0
2022-12-08T09:17:37.000Z,8409.0
2022-12-08T09:18:37.000Z,8989.0
2022-12-08T09:19:37.000Z,9277.0
2022-12-08T09:20:38.000Z,9828.0
2022-12-08T09:21:37.000Z,10467.0
2022-12-08T09:22:37.000Z,9373.0
2022-12-08T09:23:38.000Z,8771.0
2022-12-08T09:24:37.000Z,8785.0
2022-12-08T09:25:37.000Z,9120.0
2022-12-08T09:26:37.000Z,9830.0
2022-12-08T09:27:37.000Z,10687.0
2022-12-08T09:28:38.000Z,11749.0
2022-12-08T09:29:37.000Z,13864.0
2022-12-08T09:30:37.000Z,15868.0
2022-12-08T09:31:37.000Z,14899.0
2022-12-08T09:32:37.000Z,13965.0
2022-12-08T09:33:38.000Z,12227.0
2022-12-08T09:34:37.000Z,11642.0
2022-12-08T09:35:37.000Z,11547.0
2022-12-08T09:36:38.000Z,11042.0
2022-12-08T09:37:37.000Z,12178.0
2022-12-08T09:38:37.000Z,11107.0
2022-12-08T09:39:37.000Z,11441.0
2022-12-08T09:40:37.000Z,12719.0
2022-12-08T09:41:38.000Z,13013.0
2022-12-08T09:42:37.000Z,14142.0
2022-12-08T09:43:37.000Z,16000.0
2022-12-08T09:44:37.000Z,16000.0
2022-12-08T09:45:37.000Z,15500.0
2022-12-08T09:46:37.000Z,16000.0
2022-12-08T09:47:37.000Z,16000.0
2022-12-08T09:48:37.000Z,16000.0
2022-12-08T09:49:38.000Z,16000.0
2022-12-08T09:50:37.000Z,16000.0
2022-12-08T09:51:37.000Z,16000.0
2022-12-08T09:52:37.000Z,16000.0
2022-12-08T09:53:37.000Z,16000.0
2022-12-08T09:54:38.000Z,16000.0
2022-12-08T09:55:37.000Z,16000.0
2022-12-08T09:56:37.000Z,16000.0
2022-12-08T09:57:38.000Z,15439.0
2022-12-08T09:58:37.000Z,16000.0
2022-12-08T09:59:38.000Z,16000.0
2022-12-08T10:00:37.000Z,16000.0
2022-12-08T10:01:37.000Z,16000.0
2022-12-08T10:02:38.000Z,16000.0
2022-12-08T10:03:37.000Z,16000.0
2022-12-08T10:04:37.000Z,16000.0
2022-12-08T10:05:37.000Z,16000.0
2022-12-08T10:06:37.000Z,16000.0
2022-12-08T10:07:38.000Z,16000.0
2022-12-08T10:08:37.000Z,16000.0
2022-12-08T10:09:37.000Z,16000.0
2022-12-08T10:10:37.000Z,16000.0
2022-12-08T10:11:37.000Z,16000.0
2022-12-08T10:12:37.000Z,16000.0
2022-12-08T10:13:37.000Z,16000.0
2022-12-08T10:14:37.000Z,16000.0
2022-12-08T10:15:38.000Z,16000.0
2022-12-08T10:16:37.000Z,16000.0
2022-12-08T10:17:37.000Z,16000.0
2022-12-08T10:18:37.000Z,16000.0
2022-12-08T10:19:37.000Z,16000.0
2022-12-08T10:20:38.000Z,16000.0
2022-12-08T10:21:37.000Z,16000.0
2022-12-08T10:22:37.000Z,16000.0
2022-12-08T10:23:38.000Z,16000.0
2022-12-08T10:24:37.000Z,16000.0
2022-12-08T10:25:37.000Z,16000.0
2022-12-08T10:26:37.000Z,16000.0
2022-12-08T10:27:37.000Z,16000.0
2022-12-08T10:28:38.000Z,16000.0
2022-12-08T10:29:37.000Z,16000.0
2022-12-08T10:30:37.000Z,16000.0
2022-12-08T10:31:37.000Z,16000.0
2022-12-08T10:32:37.000Z,16000.0
2022-12-08T10:33:38.000Z,16000.0
2022-12-08T10:34:37.000Z,16000.0
2022-12-08T10:35:37.000Z,16000.0
2022-12-08T10:36:38.000Z,16000.0
2022-12-08T10:37:37.000Z,16000.0
2022-12-08T10:38:37.000Z,16000.0
2022-12-08T10:39:37.000Z,16000.0
2022-12-08T10:40:37.000Z,16000.0
2022-12-08T10:41:38.000Z,16000.0
2022-12-08T10:42:37.000Z,16000.0
2022-12-08T10:43:37.000Z,16000.0
2022-12-08T10:44:37.000Z,16000.0
2022-12-08T10:45:37.000Z,16000.0
2022-12-08T10:46:37.000Z,16000.0
2022-12-08T10:47:37.000Z,16000.0
2022-12-08T10:48:37.000Z,16000.0
2022-12-08T10:49:38.000Z,16000.0
2022-12-08T10:50:37.000Z,16000.0
2022-12-08T10:51:37.000Z,16000.0
2022-12-08T10:52:37.000Z,16000.0
2022-12-08T10:53:37.000Z,16000.0
2022-12-08T10:54:38.000Z,16000.0
2022-12-08T10:55:37.000Z,16000.0
2022-12-08T10:56:37.000Z,16000.0
2022-12-08T10:57:38.000Z,16000.0
2022-12-08T10:58:37.000Z,16000.0
2022-12-08T10:59:37.000Z,16000.0
2022-12-08T11:00:37.000Z,16000.0
2022-12-08T11:01:37.000Z,16000.0
2022-12-08T11:02:38.000Z,16000.0
2022-12-08T11:03:37.000Z,16000.0
2022-12-08T11:04:37.000Z,16000.0
2022-12-08T11:05:37.000Z,16000.0
2022-12-08T11:06:37.000Z,16000.0
2022-12-08T11:07:38.000Z,16000.0
2022-12-08T11:08:37.000Z,16000.0
2022-12-08T11:09:37.000Z,16000.0
2022-12-08T11:10:38.000Z,16000.0
2022-12-08T11:11:37.000Z,16000.0
2022-12-08T11:12:37.000Z,16000.0
2022-12-08T11:13:37.000Z,16000.0
2022-12-08T11:14:37.000Z,16000.0
2022-12-08T11:15:38.000Z,16000.0
2022-12-08T11:16:37.000Z,16000.0
2022-12-08T11:17:37.000Z,16000.0
2022-12-08T11:18:37.000Z,16000.0
2022-12-08T11:19:37.000Z,16000.0
2022-12-08T11:20:38.000Z,16000.0
2022-12-08T11:21:37.000Z,16000.0
2022-12-08T11:22:37.000Z,16000.0
2022-12-08T11:23:38.000Z,16000.0
2022-12-08T11:24:37.000Z,16000.0
2022-12-08T11:25:37.000Z,16000.0
2022-12-08T11:26:37.000Z,16000.0
2022-12-08T11:27:37.000Z,16000.0
2022-12-08T11:28:38.000Z,16000.0
2022-12-08T11:29:37.000Z,16000.0
2022-12-08T11:30:37.000Z,16000.0
2022-12-08T11:31:37.000Z,16000.0
2022-12-08T11:32:37.000Z,16000.0
2022-12-08T11:33:38.000Z,16000.0
2022-12-08T11:34:37.000Z,16000.0
2022-12-08T11:35:37.000Z,16000.0
2022-12-08T11:36:38.000Z,16000.0
2022-12-08T11:37:37.000Z,16000.0
2022-12-08T11:38:37.000Z,16000.0
2022-12-08T11:39:37.000Z,16000.0
2022-12-08T11:40:37.000Z,16000.0
2022-12-08T11:41:38.000Z,16000.0
2022-12-08T11:42:37.000Z,16000.0
2022-12-08T11:43:37.000Z,16000.0
2022-12-08T11:44:37.000Z,16000.0
2022-12-08T11:45:37.000Z,16000.0
2022-12-08T11:46:37.000Z,16000.0
2022-12-08T11:47:37.000Z,16000.0
2022-12-08T11:48:37.000Z,16000.0
2022-12-08T11:50:37.000Z,16000.0
2022-12-08T11:51:37.000Z,16000.0
2022-12-08T11:52:37.000Z,16000.0
2022-12-08T11:53:37.000Z,16000.0
2022-12-08T11:54:38.000Z,16000.0
2022-12-08T11:55:37.000Z,16000.0
2022-12-08T11:56:37.000Z,16000.0
2022-12-08T11:57:38.000Z,16000.0
2022-12-08T11:58:37.000Z,16000.0
2022-12-08T11:59:37.000Z,16000.0
2022-12-08T12:00:37.000Z,16000.0
2022-12-08T12:01:37.000Z,16000.0
2022-12-08T12:02:38.000Z,16000.0
2022-12-08T12:03:37.000Z,16000.0
2022-12-08T12:04:37.000Z,16000.0
2022-12-08T12:05:37.000Z,16000.0
2022-12-08T12:07:37.000Z,16000.0
2022-12-08T12:08:37.000Z,16000.0
2022-12-08T12:09:37.000Z,16000.0
2022-12-08T12:10:38.000Z,16000.0
2022-12-08T12:11:37.000Z,16000.0
2022-12-08T12:12:37.000Z,16000.0
2022-12-08T12:13:37.000Z,16000.0
2022-12-08T12:14:37.000Z,16000.0
2022-12-08T12:15:38.000Z,16000.0
2022-12-08T12:16:37.000Z,16000.0
2022-12-08T12:17:37.000Z,16000.0
2022-12-08T12:18:36.000Z,16000.0
2022-12-08T12:19:37.000Z,16000.0
2022-12-08T12:20:38.000Z,16000.0
2022-12-08T12:21:37.000Z,16000.0
2022-12-08T12:22:37.000Z,16000.0